sensor_id;sensor_type;location;lat;lon;timestamp;pressure;altitude;pressure_sealevel;temperature;humidity
69772;BME280;57046;45.988;18.664;2022-11-23T00:02:22;98776.53;;;9.39;98.17
69772;BME280;57046;45.988;18.664;2022-11-23T00:04:47;98770.66;;;9.53;97.43
69772;BME280;57046;45.988;18.664;2022-11-23T00:07:12;98772.09;;;9.47;97.08
69772;BME280;57046;45.988;18.664;2022-11-23T00:09:38;98763.69;;;9.33;98.22
69772;BME280;57046;45.988;18.664;2022-11-23T00:12:03;98764.69;;;9.25;98.88
69772;BME280;57046;45.988;18.664;2022-11-23T00:14:28;98769.63;;;9.38;98.31
69772;BME280;57046;45.988;18.664;2022-11-23T00:16:54;98766.94;;;9.23;99.37
69772;BME280;57046;45.988;18.664;2022-11-23T00:19:19;98765.34;;;9.18;98.71
69772;BME280;57046;45.988;18.664;2022-11-23T00:21:44;98762.63;;;9.18;98.31
69772;BME280;57046;45.988;18.664;2022-11-23T00:24:12;98760.69;;;9.18;98.63
69772;BME280;57046;45.988;18.664;2022-11-23T00:26:38;98772.25;;;9.19;99.08
69772;BME280;57046;45.988;18.664;2022-11-23T00:29:03;98769.16;;;9.17;97.69
69772;BME280;57046;45.988;18.664;2022-11-23T00:31:29;98770.72;;;9.18;97.52
69772;BME280;57046;45.988;18.664;2022-11-23T00:33:55;98774.53;;;9.17;98.50
69772;BME280;57046;45.988;18.664;2022-11-23T00:36:22;98765.75;;;9.20;97.53
69772;BME280;57046;45.988;18.664;2022-11-23T00:38:48;98774.06;;;9.31;97.82
69772;BME280;57046;45.988;18.664;2022-11-23T00:41:20;98780.25;;;9.15;97.90
69772;BME280;57046;45.988;18.664;2022-11-23T00:43:46;98783.34;;;9.14;98.14
69772;BME280;57046;45.988;18.664;2022-11-23T00:48:42;98775.50;;;9.09;97.69
69772;BME280;57046;45.988;18.664;2022-11-23T00:51:10;98773.81;;;9.01;98.83
69772;BME280;57046;45.988;18.664;2022-11-23T00:53:36;98777.41;;;9.08;98.37
69772;BME280;57046;45.988;18.664;2022-11-23T00:56:02;98772.63;;;9.17;96.54
69772;BME280;57046;45.988;18.664;2022-11-23T00:58:28;98777.88;;;9.30;96.33
69772;BME280;57046;45.988;18.664;2022-11-23T01:01:07;98781.19;;;9.04;97.21
69772;BME280;57046;45.988;18.664;2022-11-23T01:03:34;98783.59;;;9.09;96.85
69772;BME280;57046;45.988;18.664;2022-11-23T01:06:11;98777.63;;;9.00;97.99
69772;BME280;57046;45.988;18.664;2022-11-23T01:08:37;98798.91;;;9.05;97.61
69772;BME280;57046;45.988;18.664;2022-11-23T01:11:05;98798.13;;;9.04;97.84
69772;BME280;57046;45.988;18.664;2022-11-23T01:13:31;98778.41;;;9.00;97.14
69772;BME280;57046;45.988;18.664;2022-11-23T01:15:57;98789.13;;;9.16;97.06
69772;BME280;57046;45.988;18.664;2022-11-23T01:18:23;98774.38;;;9.10;96.03
69772;BME280;57046;45.988;18.664;2022-11-23T01:20:49;98797.84;;;9.09;96.92
69772;BME280;57046;45.988;18.664;2022-11-23T01:23:14;98780.31;;;9.00;97.68
69772;BME280;57046;45.988;18.664;2022-11-23T01:25:39;98786.09;;;9.17;96.75
69772;BME280;57046;45.988;18.664;2022-11-23T01:28:05;98789.75;;;9.09;96.66
69772;BME280;57046;45.988;18.664;2022-11-23T01:30:31;98801.81;;;9.15;96.89
69772;BME280;57046;45.988;18.664;2022-11-23T01:32:56;98796.72;;;8.95;98.13
69772;BME280;57046;45.988;18.664;2022-11-23T01:35:21;98786.13;;;9.02;96.78
69772;BME280;57046;45.988;18.664;2022-11-23T01:37:46;98793.00;;;8.99;97.67
69772;BME280;57046;45.988;18.664;2022-11-23T01:40:12;98793.88;;;9.03;97.31
69772;BME280;57046;45.988;18.664;2022-11-23T01:42:58;98786.41;;;8.97;97.64
69772;BME280;57046;45.988;18.664;2022-11-23T01:48:25;98797.25;;;9.00;98.13
69772;BME280;57046;45.988;18.664;2022-11-23T01:50:53;98794.94;;;8.83;98.80
69772;BME280;57046;45.988;18.664;2022-11-23T01:53:20;98818.97;;;8.92;99.26
69772;BME280;57046;45.988;18.664;2022-11-23T01:55:47;98798.22;;;8.92;98.75
69772;BME280;57046;45.988;18.664;2022-11-23T01:58:15;98811.78;;;8.96;98.65
69772;BME280;57046;45.988;18.664;2022-11-23T02:00:42;98804.13;;;8.82;99.02
69772;BME280;57046;45.988;18.664;2022-11-23T02:03:08;98800.31;;;8.83;99.42
69772;BME280;57046;45.988;18.664;2022-11-23T02:05:41;98810.47;;;8.90;98.78
69772;BME280;57046;45.988;18.664;2022-11-23T02:08:08;98802.72;;;8.88;98.91
69772;BME280;57046;45.988;18.664;2022-11-23T02:10:34;98802.66;;;9.00;98.45
69772;BME280;57046;45.988;18.664;2022-11-23T02:13:07;98802.03;;;9.07;99.17
69772;BME280;57046;45.988;18.664;2022-11-23T02:15:34;98792.03;;;9.07;98.11
69772;BME280;57046;45.988;18.664;2022-11-23T02:18:02;98796.19;;;9.20;98.20
69772;BME280;57046;45.988;18.664;2022-11-23T02:20:29;98787.22;;;9.16;98.20
69772;BME280;57046;45.988;18.664;2022-11-23T02:22:58;98811.97;;;9.57;95.51
69772;BME280;57046;45.988;18.664;2022-11-23T02:28:02;98824.88;;;9.29;97.88
69772;BME280;57046;45.988;18.664;2022-11-23T02:30:29;98829.72;;;9.23;98.14
69772;BME280;57046;45.988;18.664;2022-11-23T02:32:55;98833.41;;;9.15;98.85
69772;BME280;57046;45.988;18.664;2022-11-23T02:35:20;98831.06;;;9.13;98.47
69772;BME280;57046;45.988;18.664;2022-11-23T02:37:46;98822.09;;;9.09;98.94
69772;BME280;57046;45.988;18.664;2022-11-23T02:40:26;98831.38;;;9.28;98.26
69772;BME280;57046;45.988;18.664;2022-11-23T02:42:52;98833.03;;;9.16;98.96
69772;BME280;57046;45.988;18.664;2022-11-23T02:45:25;98827.94;;;9.11;98.50
69772;BME280;57046;45.988;18.664;2022-11-23T02:47:52;98822.53;;;8.96;100.00
69772;BME280;57046;45.988;18.664;2022-11-23T02:50:18;98823.94;;;8.90;100.00
69772;BME280;57046;45.988;18.664;2022-11-23T02:52:43;98824.63;;;9.02;100.00
69772;BME280;57046;45.988;18.664;2022-11-23T02:55:09;98826.22;;;8.88;100.00
69772;BME280;57046;45.988;18.664;2022-11-23T02:57:35;98838.00;;;9.14;99.19
69772;BME280;57046;45.988;18.664;2022-11-23T03:00:00;98838.72;;;8.96;100.00
69772;BME280;57046;45.988;18.664;2022-11-23T03:02:26;98847.91;;;9.10;100.00
69772;BME280;57046;45.988;18.664;2022-11-23T03:04:51;98846.88;;;8.99;100.00
69772;BME280;57046;45.988;18.664;2022-11-23T03:07:16;98832.13;;;8.93;100.00
69772;BME280;57046;45.988;18.664;2022-11-23T03:09:41;98863.53;;;9.36;98.60
69772;BME280;57046;45.988;18.664;2022-11-23T03:12:07;98864.69;;;9.19;99.25
69772;BME280;57046;45.988;18.664;2022-11-23T03:14:32;98833.31;;;9.11;99.60
69772;BME280;57046;45.988;18.664;2022-11-23T03:16:58;98830.94;;;9.26;98.82
69772;BME280;57046;45.988;18.664;2022-11-23T03:19:24;98839.38;;;9.24;99.25
69772;BME280;57046;45.988;18.664;2022-11-23T03:21:49;98842.78;;;9.21;99.43
69772;BME280;57046;45.988;18.664;2022-11-23T03:24:14;98845.72;;;9.16;99.12
69772;BME280;57046;45.988;18.664;2022-11-23T03:26:40;98841.53;;;9.34;98.69
69772;BME280;57046;45.988;18.664;2022-11-23T03:29:05;98854.56;;;9.32;98.67
69772;BME280;57046;45.988;18.664;2022-11-23T03:31:30;98852.31;;;9.34;98.88
69772;BME280;57046;45.988;18.664;2022-11-23T03:33:55;98839.28;;;9.20;99.77
69772;BME280;57046;45.988;18.664;2022-11-23T03:36:21;98839.81;;;9.26;99.46
69772;BME280;57046;45.988;18.664;2022-11-23T03:38:46;98848.25;;;9.25;98.99
69772;BME280;57046;45.988;18.664;2022-11-23T03:41:11;98849.53;;;9.31;99.48
69772;BME280;57046;45.988;18.664;2022-11-23T03:43:37;98859.06;;;9.44;98.77
69772;BME280;57046;45.988;18.664;2022-11-23T03:46:02;98871.38;;;9.60;97.99
69772;BME280;57046;45.988;18.664;2022-11-23T03:48:27;98867.16;;;9.44;98.33
69772;BME280;57046;45.988;18.664;2022-11-23T03:50:53;98862.66;;;9.32;98.52
69772;BME280;57046;45.988;18.664;2022-11-23T03:53:18;98864.84;;;9.42;97.91
69772;BME280;57046;45.988;18.664;2022-11-23T03:55:45;98865.09;;;9.37;99.67
69772;BME280;57046;45.988;18.664;2022-11-23T03:58:10;98857.47;;;9.24;99.63
69772;BME280;57046;45.988;18.664;2022-11-23T04:00:36;98860.91;;;9.40;98.84
69772;BME280;57046;45.988;18.664;2022-11-23T04:03:01;98857.53;;;9.27;99.48
69772;BME280;57046;45.988;18.664;2022-11-23T04:05:26;98856.13;;;9.33;99.32
69772;BME280;57046;45.988;18.664;2022-11-23T04:07:51;98840.13;;;9.40;98.64
69772;BME280;57046;45.988;18.664;2022-11-23T04:10:18;98852.91;;;9.43;98.73
69772;BME280;57046;45.988;18.664;2022-11-23T04:12:44;98844.66;;;9.36;98.86
69772;BME280;57046;45.988;18.664;2022-11-23T04:15:10;98845.63;;;9.28;99.98
69772;BME280;57046;45.988;18.664;2022-11-23T04:17:36;98857.16;;;9.44;99.10
69772;BME280;57046;45.988;18.664;2022-11-23T04:20:03;98857.00;;;9.37;98.97
69772;BME280;57046;45.988;18.664;2022-11-23T04:22:29;98863.06;;;9.50;98.35
69772;BME280;57046;45.988;18.664;2022-11-23T04:24:54;98857.81;;;9.57;98.26
69772;BME280;57046;45.988;18.664;2022-11-23T04:27:19;98857.59;;;9.46;98.72
69772;BME280;57046;45.988;18.664;2022-11-23T04:29:45;98845.19;;;9.42;98.83
69772;BME280;57046;45.988;18.664;2022-11-23T04:32:10;98860.66;;;9.45;98.41
69772;BME280;57046;45.988;18.664;2022-11-23T04:34:35;98861.44;;;9.45;99.10
69772;BME280;57046;45.988;18.664;2022-11-23T04:37:01;98862.72;;;9.51;98.82
69772;BME280;57046;45.988;18.664;2022-11-23T04:39:26;98863.59;;;9.55;97.91
69772;BME280;57046;45.988;18.664;2022-11-23T04:41:51;98880.97;;;9.58;98.30
69772;BME280;57046;45.988;18.664;2022-11-23T04:44:17;98881.13;;;9.65;97.79
69772;BME280;57046;45.988;18.664;2022-11-23T04:46:42;98875.56;;;9.58;98.53
69772;BME280;57046;45.988;18.664;2022-11-23T04:49:08;98872.88;;;9.58;98.30
69772;BME280;57046;45.988;18.664;2022-11-23T04:51:34;98866.91;;;9.49;98.91
69772;BME280;57046;45.988;18.664;2022-11-23T04:53:59;98874.16;;;9.64;98.65
69772;BME280;57046;45.988;18.664;2022-11-23T04:56:24;98872.88;;;9.58;98.35
69772;BME280;57046;45.988;18.664;2022-11-23T04:58:50;98871.50;;;9.48;98.88
69772;BME280;57046;45.988;18.664;2022-11-23T05:01:15;98872.72;;;9.51;99.28
69772;BME280;57046;45.988;18.664;2022-11-23T05:03:41;98873.75;;;9.62;98.23
69772;BME280;57046;45.988;18.664;2022-11-23T05:06:06;98868.75;;;9.45;99.29
69772;BME280;57046;45.988;18.664;2022-11-23T05:08:32;98873.75;;;9.46;98.88
69772;BME280;57046;45.988;18.664;2022-11-23T05:10:57;98881.75;;;9.43;99.14
69772;BME280;57046;45.988;18.664;2022-11-23T05:13:23;98884.63;;;9.50;99.08
69772;BME280;57046;45.988;18.664;2022-11-23T05:15:48;98885.97;;;9.75;98.41
69772;BME280;57046;45.988;18.664;2022-11-23T05:18:13;98881.34;;;9.76;97.82
69772;BME280;57046;45.988;18.664;2022-11-23T05:20:39;98886.13;;;9.82;96.91
69772;BME280;57046;45.988;18.664;2022-11-23T05:23:05;98886.84;;;9.79;97.16
69772;BME280;57046;45.988;18.664;2022-11-23T05:25:31;98893.34;;;9.78;97.39
69772;BME280;57046;45.988;18.664;2022-11-23T05:27:56;98888.38;;;9.80;96.87
69772;BME280;57046;45.988;18.664;2022-11-23T05:30:22;98882.97;;;9.80;96.90
69772;BME280;57046;45.988;18.664;2022-11-23T05:32:47;98900.72;;;9.81;97.07
69772;BME280;57046;45.988;18.664;2022-11-23T05:35:13;98905.09;;;9.70;96.95
69772;BME280;57046;45.988;18.664;2022-11-23T05:37:40;98897.88;;;9.74;96.83
69772;BME280;57046;45.988;18.664;2022-11-23T05:40:06;98914.69;;;9.67;96.82
69772;BME280;57046;45.988;18.664;2022-11-23T05:42:32;98921.28;;;9.70;98.19
69772;BME280;57046;45.988;18.664;2022-11-23T05:44:57;98917.88;;;9.73;96.75
69772;BME280;57046;45.988;18.664;2022-11-23T05:47:23;98939.38;;;9.85;96.26
69772;BME280;57046;45.988;18.664;2022-11-23T05:49:48;98938.91;;;9.83;96.53
69772;BME280;57046;45.988;18.664;2022-11-23T05:52:13;98932.06;;;9.86;96.15
69772;BME280;57046;45.988;18.664;2022-11-23T05:54:39;98938.59;;;9.85;96.47
69772;BME280;57046;45.988;18.664;2022-11-23T05:57:04;98943.28;;;9.88;96.28
69772;BME280;57046;45.988;18.664;2022-11-23T05:59:29;98949.94;;;9.94;96.50
69772;BME280;57046;45.988;18.664;2022-11-23T06:01:55;98946.75;;;9.88;95.85
69772;BME280;57046;45.988;18.664;2022-11-23T06:04:20;98953.09;;;9.96;95.90
69772;BME280;57046;45.988;18.664;2022-11-23T06:06:45;98955.09;;;9.99;95.77
69772;BME280;57046;45.988;18.664;2022-11-23T06:09:11;98962.59;;;9.90;95.98
69772;BME280;57046;45.988;18.664;2022-11-23T06:11:36;98959.03;;;9.86;96.68
69772;BME280;57046;45.988;18.664;2022-11-23T06:14:01;98955.78;;;9.96;96.16
69772;BME280;57046;45.988;18.664;2022-11-23T06:16:27;98960.19;;;10.04;95.00
69772;BME280;57046;45.988;18.664;2022-11-23T06:18:52;98968.38;;;10.07;95.51
69772;BME280;57046;45.988;18.664;2022-11-23T06:21:17;98966.50;;;9.92;96.21
69772;BME280;57046;45.988;18.664;2022-11-23T06:23:45;98977.97;;;10.05;95.61
69772;BME280;57046;45.988;18.664;2022-11-23T06:26:10;98963.09;;;9.95;95.43
69772;BME280;57046;45.988;18.664;2022-11-23T06:28:36;98972.94;;;9.88;96.83
69772;BME280;57046;45.988;18.664;2022-11-23T06:31:03;98972.84;;;10.00;95.87
69772;BME280;57046;45.988;18.664;2022-11-23T06:33:28;98954.94;;;9.92;96.25
69772;BME280;57046;45.988;18.664;2022-11-23T06:35:55;98968.50;;;9.95;95.90
69772;BME280;57046;45.988;18.664;2022-11-23T06:38:21;98971.63;;;9.97;96.14
69772;BME280;57046;45.988;18.664;2022-11-23T06:40:46;98967.28;;;9.93;95.56
69772;BME280;57046;45.988;18.664;2022-11-23T06:43:12;98985.19;;;10.01;95.56
69772;BME280;57046;45.988;18.664;2022-11-23T06:45:37;98976.50;;;9.92;96.11
69772;BME280;57046;45.988;18.664;2022-11-23T06:48:02;98987.03;;;9.97;96.46
69772;BME280;57046;45.988;18.664;2022-11-23T06:50:28;98994.00;;;9.98;95.74
69772;BME280;57046;45.988;18.664;2022-11-23T06:52:57;99003.75;;;10.02;96.62
69772;BME280;57046;45.988;18.664;2022-11-23T06:55:25;99000.88;;;9.95;96.39
69772;BME280;57046;45.988;18.664;2022-11-23T06:57:51;98979.38;;;9.83;96.58
69772;BME280;57046;45.988;18.664;2022-11-23T07:00:17;98999.69;;;9.93;96.63
69772;BME280;57046;45.988;18.664;2022-11-23T07:02:43;98999.69;;;9.93;96.67
69772;BME280;57046;45.988;18.664;2022-11-23T07:05:14;99000.97;;;9.99;96.38
69772;BME280;57046;45.988;18.664;2022-11-23T07:07:40;99000.19;;;9.98;96.45
69772;BME280;57046;45.988;18.664;2022-11-23T07:10:06;99022.72;;;10.06;96.05
69772;BME280;57046;45.988;18.664;2022-11-23T07:12:31;99005.03;;;10.08;96.13
69772;BME280;57046;45.988;18.664;2022-11-23T07:14:56;99028.81;;;10.18;95.31
69772;BME280;57046;45.988;18.664;2022-11-23T07:17:22;99026.03;;;10.15;95.95
69772;BME280;57046;45.988;18.664;2022-11-23T07:19:47;99028.72;;;10.15;95.99
69772;BME280;57046;45.988;18.664;2022-11-23T07:22:12;99029.41;;;10.12;95.34
69772;BME280;57046;45.988;18.664;2022-11-23T07:24:38;99035.91;;;10.11;96.16
69772;BME280;57046;45.988;18.664;2022-11-23T07:27:03;99037.63;;;10.00;96.86
69772;BME280;57046;45.988;18.664;2022-11-23T07:29:28;99040.78;;;9.86;97.11
69772;BME280;57046;45.988;18.664;2022-11-23T07:31:53;99046.50;;;9.85;97.95
69772;BME280;57046;45.988;18.664;2022-11-23T07:34:19;99053.09;;;9.87;98.38
69772;BME280;57046;45.988;18.664;2022-11-23T07:36:44;99049.53;;;9.99;97.32
69772;BME280;57046;45.988;18.664;2022-11-23T07:39:10;99049.09;;;9.97;98.08
69772;BME280;57046;45.988;18.664;2022-11-23T07:41:35;99044.66;;;10.04;97.68
69772;BME280;57046;45.988;18.664;2022-11-23T07:44:00;99039.00;;;10.09;97.19
69772;BME280;57046;45.988;18.664;2022-11-23T07:46:26;99052.22;;;10.14;97.04
69772;BME280;57046;45.988;18.664;2022-11-23T07:48:51;99055.78;;;10.18;97.23
69772;BME280;57046;45.988;18.664;2022-11-23T07:51:16;99058.66;;;10.26;97.04
69772;BME280;57046;45.988;18.664;2022-11-23T07:53:42;99053.69;;;10.28;96.56
69772;BME280;57046;45.988;18.664;2022-11-23T07:56:07;99050.91;;;10.24;97.12
69772;BME280;57046;45.988;18.664;2022-11-23T07:58:32;99061.69;;;10.24;97.42
69772;BME280;57046;45.988;18.664;2022-11-23T08:00:58;99060.78;;;10.16;97.35
69772;BME280;57046;45.988;18.664;2022-11-23T08:03:23;99059.44;;;10.10;98.09
69772;BME280;57046;45.988;18.664;2022-11-23T08:05:48;99059.53;;;10.14;98.82
69772;BME280;57046;45.988;18.664;2022-11-23T08:08:14;99056.69;;;10.07;99.22
69772;BME280;57046;45.988;18.664;2022-11-23T08:10:39;99061.63;;;10.05;99.03
69772;BME280;57046;45.988;18.664;2022-11-23T08:13:05;99065.28;;;10.12;99.80
69772;BME280;57046;45.988;18.664;2022-11-23T08:15:31;99065.72;;;10.14;99.23
69772;BME280;57046;45.988;18.664;2022-11-23T08:17:58;99055.88;;;10.06;99.21
69772;BME280;57046;45.988;18.664;2022-11-23T08:20:24;99061.69;;;10.24;98.81
69772;BME280;57046;45.988;18.664;2022-11-23T08:22:50;99059.38;;;10.23;98.70
69772;BME280;57046;45.988;18.664;2022-11-23T08:25:15;99072.66;;;10.31;97.92
69772;BME280;57046;45.988;18.664;2022-11-23T08:27:41;99076.47;;;10.46;97.53
69772;BME280;57046;45.988;18.664;2022-11-23T08:30:07;99084.41;;;10.39;97.37
69772;BME280;57046;45.988;18.664;2022-11-23T08:32:32;99080.34;;;10.29;97.58
69772;BME280;57046;45.988;18.664;2022-11-23T08:34:58;99073.59;;;10.39;97.46
69772;BME280;57046;45.988;18.664;2022-11-23T08:37:23;99073.91;;;10.34;97.45
69772;BME280;57046;45.988;18.664;2022-11-23T08:39:48;99080.13;;;10.38;97.58
69772;BME280;57046;45.988;18.664;2022-11-23T08:42:14;99091.00;;;10.41;97.75
69772;BME280;57046;45.988;18.664;2022-11-23T08:44:39;99092.03;;;10.52;97.16
69772;BME280;57046;45.988;18.664;2022-11-23T08:47:04;99099.66;;;10.47;97.61
69772;BME280;57046;45.988;18.664;2022-11-23T08:49:30;99091.47;;;10.43;97.57
69772;BME280;57046;45.988;18.664;2022-11-23T08:51:55;99088.13;;;10.50;97.09
69772;BME280;57046;45.988;18.664;2022-11-23T08:54:20;99089.97;;;10.46;97.12
69772;BME280;57046;45.988;18.664;2022-11-23T08:56:46;99089.47;;;10.40;97.06
69772;BME280;57046;45.988;18.664;2022-11-23T08:59:11;99095.03;;;10.47;97.36
69772;BME280;57046;45.988;18.664;2022-11-23T09:01:36;99105.53;;;10.52;96.80
69772;BME280;57046;45.988;18.664;2022-11-23T09:04:02;99111.00;;;10.37;97.61
69772;BME280;57046;45.988;18.664;2022-11-23T09:06:27;99101.72;;;10.38;97.34
69772;BME280;57046;45.988;18.664;2022-11-23T09:08:52;99098.00;;;10.42;96.97
69772;BME280;57046;45.988;18.664;2022-11-23T09:11:18;99107.34;;;10.64;96.70
69772;BME280;57046;45.988;18.664;2022-11-23T09:13:43;99120.78;;;10.60;97.23
69772;BME280;57046;45.988;18.664;2022-11-23T09:16:08;99126.38;;;10.52;98.00
69772;BME280;57046;45.988;18.664;2022-11-23T09:18:34;99115.69;;;10.40;98.08
69772;BME280;57046;45.988;18.664;2022-11-23T09:21:02;99128.56;;;10.46;97.79
69772;BME280;57046;45.988;18.664;2022-11-23T09:23:28;99104.00;;;10.36;98.09
69772;BME280;57046;45.988;18.664;2022-11-23T09:25:57;99125.81;;;10.62;97.73
69772;BME280;57046;45.988;18.664;2022-11-23T09:28:22;99126.97;;;10.61;97.37
69772;BME280;57046;45.988;18.664;2022-11-23T09:30:47;99124.38;;;10.49;98.21
69772;BME280;57046;45.988;18.664;2022-11-23T09:33:13;99129.78;;;10.49;98.10
69772;BME280;57046;45.988;18.664;2022-11-23T09:35:38;99121.66;;;10.49;97.96
69772;BME280;57046;45.988;18.664;2022-11-23T09:38:04;99127.63;;;10.39;97.83
69772;BME280;57046;45.988;18.664;2022-11-23T09:40:31;99131.34;;;10.50;97.68
69772;BME280;57046;45.988;18.664;2022-11-23T09:46:12;99132.78;;;10.63;97.96
69772;BME280;57046;45.988;18.664;2022-11-23T09:51:27;99117.44;;;10.67;97.25
69772;BME280;57046;45.988;18.664;2022-11-23T09:53:56;99122.00;;;10.63;98.07
69772;BME280;57046;45.988;18.664;2022-11-23T09:56:27;99120.00;;;10.60;97.95
69772;BME280;57046;45.988;18.664;2022-11-23T09:58:55;99130.63;;;10.53;97.78
69772;BME280;57046;45.988;18.664;2022-11-23T10:01:22;99126.38;;;10.52;97.51
69772;BME280;57046;45.988;18.664;2022-11-23T10:03:48;99128.69;;;10.69;97.35
69772;BME280;57046;45.988;18.664;2022-11-23T10:06:22;99125.97;;;10.69;97.31
69772;BME280;57046;45.988;18.664;2022-11-23T10:15:03;99130.97;;;10.51;98.57
69772;BME280;57046;45.988;18.664;2022-11-23T10:22:56;99132.91;;;10.51;97.62
69772;BME280;57046;45.988;18.664;2022-11-23T10:25:23;99132.44;;;10.30;97.90
69772;BME280;57046;45.988;18.664;2022-11-23T10:27:51;99125.19;;;10.34;97.56
69772;BME280;57046;45.988;18.664;2022-11-23T10:30:18;99141.78;;;10.67;96.95
69772;BME280;57046;45.988;18.664;2022-11-23T10:32:52;99136.44;;;10.70;96.31
69772;BME280;57046;45.988;18.664;2022-11-23T10:35:31;99135.25;;;10.68;96.13
69772;BME280;57046;45.988;18.664;2022-11-23T10:38:11;99132.63;;;10.56;95.90
69772;BME280;57046;45.988;18.664;2022-11-23T10:40:39;99127.69;;;10.58;96.00
69772;BME280;57046;45.988;18.664;2022-11-23T10:43:17;99140.81;;;10.59;96.60
69772;BME280;57046;45.988;18.664;2022-11-23T10:45:44;99136.47;;;10.55;96.35
69772;BME280;57046;45.988;18.664;2022-11-23T10:48:10;99132.63;;;10.56;96.00
69772;BME280;57046;45.988;18.664;2022-11-23T10:50:37;99136.81;;;10.53;96.92
69772;BME280;57046;45.988;18.664;2022-11-23T10:53:22;99138.34;;;10.70;96.20
69772;BME280;57046;45.988;18.664;2022-11-23T10:55:53;99132.25;;;10.73;95.68
69772;BME280;57046;45.988;18.664;2022-11-23T10:58:33;99140.34;;;10.73;95.78
69772;BME280;57046;45.988;18.664;2022-11-23T11:01:17;99135.72;;;10.73;95.54
69772;BME280;57046;45.988;18.664;2022-11-23T11:03:43;99140.25;;;10.85;95.63
69772;BME280;57046;45.988;18.664;2022-11-23T11:06:09;99138.44;;;10.93;95.91
69772;BME280;57046;45.988;18.664;2022-11-23T11:08:51;99144.47;;;10.67;97.04
69772;BME280;57046;45.988;18.664;2022-11-23T11:11:25;99143.03;;;10.54;97.68
69772;BME280;57046;45.988;18.664;2022-11-23T11:14:04;99148.38;;;10.69;96.73
69772;BME280;57046;45.988;18.664;2022-11-23T11:16:37;99138.06;;;10.75;96.42
69772;BME280;57046;45.988;18.664;2022-11-23T11:19:30;99153.69;;;10.66;97.16
69772;BME280;57046;45.988;18.664;2022-11-23T11:21:56;99162.53;;;10.82;95.99
69772;BME280;57046;45.988;18.664;2022-11-23T11:24:38;99158.47;;;10.72;96.57
69772;BME280;57046;45.988;18.664;2022-11-23T11:27:11;99152.97;;;10.85;96.46
69772;BME280;57046;45.988;18.664;2022-11-23T11:34:48;99172.38;;;10.90;94.56
69772;BME280;57046;45.988;18.664;2022-11-23T11:37:21;99167.19;;;10.82;94.03
69772;BME280;57046;45.988;18.664;2022-11-23T11:42:56;99164.81;;;10.80;94.93
69772;BME280;57046;45.988;18.664;2022-11-23T11:45:36;99172.28;;;10.52;95.61
69772;BME280;57046;45.988;18.664;2022-11-23T11:48:14;99174.53;;;10.65;95.53
69772;BME280;57046;45.988;18.664;2022-11-23T11:51:11;99174.25;;;10.70;95.05
69772;BME280;57046;45.988;18.664;2022-11-23T11:56:38;99184.41;;;10.58;94.52
69772;BME280;57046;45.988;18.664;2022-11-23T11:59:13;99187.91;;;10.43;96.03
69772;BME280;57046;45.988;18.664;2022-11-23T12:04:36;99197.03;;;10.07;96.05
69772;BME280;57046;45.988;18.664;2022-11-23T12:07:10;99193.75;;;10.29;95.61
69772;BME280;57046;45.988;18.664;2022-11-23T12:09:43;99203.22;;;10.39;94.72
69772;BME280;57046;45.988;18.664;2022-11-23T12:12:14;99209.69;;;10.34;94.64
69772;BME280;57046;45.988;18.664;2022-11-23T12:14:40;99205.88;;;9.92;94.68
69772;BME280;57046;45.988;18.664;2022-11-23T12:20:25;99211.25;;;9.92;95.00
69772;BME280;57046;45.988;18.664;2022-11-23T12:23:24;99206.47;;;10.01;95.47
69772;BME280;57046;45.988;18.664;2022-11-23T12:38:08;99230.66;;;9.82;94.01
69772;BME280;57046;45.988;18.664;2022-11-23T12:43:27;99222.38;;;9.75;94.33
69772;BME280;57046;45.988;18.664;2022-11-23T12:46:11;99232.94;;;9.95;93.56
69772;BME280;57046;45.988;18.664;2022-11-23T12:48:51;99237.94;;;9.65;94.43
69772;BME280;57046;45.988;18.664;2022-11-23T12:54:46;99240.75;;;9.85;94.33
69772;BME280;57046;45.988;18.664;2022-11-23T12:57:27;99239.88;;;9.53;94.85
69772;BME280;57046;45.988;18.664;2022-11-23T13:00:03;99249.03;;;9.64;94.66
69772;BME280;57046;45.988;18.664;2022-11-23T13:05:54;99262.13;;;9.50;94.59
69772;BME280;57046;45.988;18.664;2022-11-23T13:19:36;99275.41;;;9.43;94.79
69772;BME280;57046;45.988;18.664;2022-11-23T13:22:10;99269.78;;;9.48;93.93
69772;BME280;57046;45.988;18.664;2022-11-23T13:24:40;99268.25;;;9.23;94.52
69772;BME280;57046;45.988;18.664;2022-11-23T13:40:25;99281.06;;;9.26;94.64
69772;BME280;57046;45.988;18.664;2022-11-23T13:42:53;99302.50;;;9.34;93.90
69772;BME280;57046;45.988;18.664;2022-11-23T13:50:30;99290.50;;;9.32;94.37
69772;BME280;57046;45.988;18.664;2022-11-23T13:52:55;99308.34;;;9.24;94.71
69772;BME280;57046;45.988;18.664;2022-11-23T13:55:31;99308.72;;;9.10;95.56
69772;BME280;57046;45.988;18.664;2022-11-23T14:00:48;99326.63;;;9.43;94.22
69772;BME280;57046;45.988;18.664;2022-11-23T14:06:19;99330.94;;;9.32;94.71
69772;BME280;57046;45.988;18.664;2022-11-23T14:08:47;99321.25;;;9.43;94.12
69772;BME280;57046;45.988;18.664;2022-11-23T14:11:19;99330.31;;;9.50;93.59
69772;BME280;57046;45.988;18.664;2022-11-23T14:14:02;99334.81;;;9.58;93.79
69772;BME280;57046;45.988;18.664;2022-11-23T14:16:54;99332.06;;;9.31;94.08
69772;BME280;57046;45.988;18.664;2022-11-23T14:22:06;99344.41;;;9.19;93.29
69772;BME280;57046;45.988;18.664;2022-11-23T14:25:10;99337.78;;;9.17;94.83
69772;BME280;57046;45.988;18.664;2022-11-23T14:30:40;99346.19;;;9.15;92.97
69772;BME280;57046;45.988;18.664;2022-11-23T14:33:21;99357.44;;;9.17;93.04
69772;BME280;57046;45.988;18.664;2022-11-23T14:36:11;99354.50;;;9.23;91.96
69772;BME280;57046;45.988;18.664;2022-11-23T14:38:51;99359.44;;;8.96;93.85
69772;BME280;57046;45.988;18.664;2022-11-23T14:41:21;99359.91;;;9.10;93.27
69772;BME280;57046;45.988;18.664;2022-11-23T14:43:48;99359.34;;;9.05;93.25
69772;BME280;57046;45.988;18.664;2022-11-23T14:46:19;99376.06;;;9.23;93.49